sensor_id;sensor_type;location;lat;lon;timestamp;pressure;altitude;pressure_sealevel;temperature;humidity
55070;BME280;40967;52.070;8.596;2023-08-06T00:01:49;99592.28;;;15.52;100.00
55070;BME280;40967;52.070;8.596;2023-08-06T00:04:14;99588.78;;;15.51;100.00
55070;BME280;40967;52.070;8.596;2023-08-06T00:06:40;99589.56;;;15.52;100.00
55070;BME280;40967;52.070;8.596;2023-08-06T00:09:05;99600.16;;;15.53;100.00
55070;BME280;40967;52.070;8.596;2023-08-06T00:11:31;99604.03;;;15.52;100.00
55070;BME280;40967;52.070;8.596;2023-08-06T00:13:56;99603.56;;;15.50;100.00
55070;BME280;40967;52.070;8.596;2023-08-06T00:16:22;99599.22;;;15.49;100.00
55070;BME280;40967;52.070;8.596;2023-08-06T00:18:47;99588.63;;;15.48;100.00
55070;BME280;40967;52.070;8.596;2023-08-06T00:21:13;99587.00;;;15.47;100.00
55070;BME280;40967;52.070;8.596;2023-08-06T00:23:39;99584.25;;;15.47;100.00
55070;BME280;40967;52.070;8.596;2023-08-06T00:26:04;99582.19;;;15.44;100.00
55070;BME280;40967;52.070;8.596;2023-08-06T00:28:30;99595.53;;;15.45;100.00
55070;BME280;40967;52.070;8.596;2023-08-06T00:30:56;99591.97;;;15.45;100.00
55070;BME280;40967;52.070;8.596;2023-08-06T00:33:25;99592.31;;;15.43;100.00
55070;BME280;40967;52.070;8.596;2023-08-06T00:35:50;99588.78;;;15.43;100.00
55070;BME280;40967;52.070;8.596;2023-08-06T00:38:16;99586.06;;;15.43;100.00
55070;BME280;40967;52.070;8.596;2023-08-06T00:40:41;99581.22;;;15.40;100.00
55070;BME280;40967;52.070;8.596;2023-08-06T00:43:07;99585.72;;;15.44;100.00
55070;BME280;40967;52.070;8.596;2023-08-06T00:45:36;99585.41;;;15.46;100.00
55070;BME280;40967;52.070;8.596;2023-08-06T00:48:03;99585.06;;;15.47;100.00
55070;BME280;40967;52.070;8.596;2023-08-06T00:50:30;99575.91;;;15.43;100.00
55070;BME280;40967;52.070;8.596;2023-08-06T00:52:55;99576.06;;;15.47;100.00
55070;BME280;40967;52.070;8.596;2023-08-06T00:55:21;99567.06;;;15.46;100.00
55070;BME280;40967;52.070;8.596;2023-08-06T00:57:47;99566.28;;;15.46;100.00
55070;BME280;40967;52.070;8.596;2023-08-06T01:00:13;99554.03;;;15.43;100.00
55070;BME280;40967;52.070;8.596;2023-08-06T01:02:38;99554.84;;;15.44;100.00
55070;BME280;40967;52.070;8.596;2023-08-06T01:05:04;99549.38;;;15.44;100.00
55070;BME280;40967;52.070;8.596;2023-08-06T01:12:50;99547.47;;;15.44;100.00
55070;BME280;40967;52.070;8.596;2023-08-06T01:15:46;99524.28;;;15.33;100.00
55070;BME280;40967;52.070;8.596;2023-08-06T01:18:14;99521.38;;;15.38;100.00
55070;BME280;40967;52.070;8.596;2023-08-06T01:20:39;99536.03;;;15.42;100.00
55070;BME280;40967;52.070;8.596;2023-08-06T01:23:05;99529.75;;;15.42;100.00
55070;BME280;40967;52.070;8.596;2023-08-06T01:25:36;99528.94;;;15.41;100.00
55070;BME280;40967;52.070;8.596;2023-08-06T01:28:18;99533.31;;;15.42;100.00
55070;BME280;40967;52.070;8.596;2023-08-06T01:30:49;99530.25;;;15.44;100.00
55070;BME280;40967;52.070;8.596;2023-08-06T01:33:19;99534.13;;;15.43;100.00
55070;BME280;40967;52.070;8.596;2023-08-06T01:35:47;99520.44;;;15.43;100.00
55070;BME280;40967;52.070;8.596;2023-08-06T01:38:14;99516.56;;;15.44;100.00
55070;BME280;40967;52.070;8.596;2023-08-06T01:40:40;99518.50;;;15.43;100.00
55070;BME280;40967;52.070;8.596;2023-08-06T01:43:05;99509.19;;;15.44;100.00
55070;BME280;40967;52.070;8.596;2023-08-06T01:45:31;99511.91;;;15.44;100.00
55070;BME280;40967;52.070;8.596;2023-08-06T01:47:56;99512.69;;;15.45;100.00
55070;BME280;40967;52.070;8.596;2023-08-06T01:50:22;99497.78;;;15.42;100.00
55070;BME280;40967;52.070;8.596;2023-08-06T01:52:47;99494.56;;;15.40;100.00
55070;BME280;40967;52.070;8.596;2023-08-06T01:55:12;99501.78;;;15.45;100.00
55070;BME280;40967;52.070;8.596;2023-08-06T01:57:38;99495.53;;;15.44;100.00
55070;BME280;40967;52.070;8.596;2023-08-06T02:00:04;99501.00;;;15.44;100.00
55070;BME280;40967;52.070;8.596;2023-08-06T02:02:29;99499.03;;;15.45;100.00
55070;BME280;40967;52.070;8.596;2023-08-06T02:04:55;99501.78;;;15.45;100.00
55070;BME280;40967;52.070;8.596;2023-08-06T02:07:20;99501.00;;;15.44;100.00
55070;BME280;40967;52.070;8.596;2023-08-06T02:09:45;99495.53;;;15.44;100.00
55070;BME280;40967;52.070;8.596;2023-08-06T02:12:11;99489.56;;;15.42;100.00
55070;BME280;40967;52.070;8.596;2023-08-06T02:14:36;99487.94;;;15.41;100.00
55070;BME280;40967;52.070;8.596;2023-08-06T02:17:01;99484.09;;;15.42;100.00
55070;BME280;40967;52.070;8.596;2023-08-06T02:19:27;99482.47;;;15.41;100.00
55070;BME280;40967;52.070;8.596;2023-08-06T02:21:52;99484.09;;;15.42;100.00
55070;BME280;40967;52.070;8.596;2023-08-06T02:24:17;99482.47;;;15.41;100.00
55070;BME280;40967;52.070;8.596;2023-08-06T02:26:43;99482.00;;;15.39;100.00
55070;BME280;40967;52.070;8.596;2023-08-06T02:29:11;99481.69;;;15.41;100.00
55070;BME280;40967;52.070;8.596;2023-08-06T02:31:37;99472.50;;;15.37;100.00
55070;BME280;40967;52.070;8.596;2023-08-06T02:34:02;99474.91;;;15.38;100.00
55070;BME280;40967;52.070;8.596;2023-08-06T02:36:27;99473.31;;;15.37;100.00
55070;BME280;40967;52.070;8.596;2023-08-06T02:38:55;99469.63;;;15.33;100.00
55070;BME280;40967;52.070;8.596;2023-08-06T02:41:20;99466.75;;;15.30;100.00
55070;BME280;40967;52.070;8.596;2023-08-06T02:43:45;99462.41;;;15.29;100.00
55070;BME280;40967;52.070;8.596;2023-08-06T02:46:11;99454.38;;;15.24;100.00
55070;BME280;40967;52.070;8.596;2023-08-06T02:48:36;99460.50;;;15.21;100.00
55070;BME280;40967;52.070;8.596;2023-08-06T02:51:01;99461.16;;;15.18;100.00
55070;BME280;40967;52.070;8.596;2023-08-06T02:53:27;99457.13;;;15.15;100.00
55070;BME280;40967;52.070;8.596;2023-08-06T02:55:52;99449.09;;;15.10;100.00
55070;BME280;40967;52.070;8.596;2023-08-06T02:58:18;99444.78;;;15.09;100.00
55070;BME280;40967;52.070;8.596;2023-08-06T03:00:58;99444.94;;;15.04;100.00
55070;BME280;40967;52.070;8.596;2023-08-06T03:03:24;99445.91;;;15.00;100.00
55070;BME280;40967;52.070;8.596;2023-08-06T03:05:53;99438.38;;;14.97;100.00
55070;BME280;40967;52.070;8.596;2023-08-06T03:08:18;99431.94;;;14.93;100.00
55070;BME280;40967;52.070;8.596;2023-08-06T03:10:47;99432.44;;;14.86;100.00
55070;BME280;40967;52.070;8.596;2023-08-06T03:13:13;99430.38;;;14.83;100.00
55070;BME280;40967;52.070;8.596;2023-08-06T03:15:38;99427.97;;;14.82;100.00
55070;BME280;40967;52.070;8.596;2023-08-06T03:18:03;99424.75;;;14.79;100.00
55070;BME280;40967;52.070;8.596;2023-08-06T03:20:32;99428.63;;;14.78;100.00
55070;BME280;40967;52.070;8.596;2023-08-06T03:22:57;99422.19;;;14.74;100.00
55070;BME280;40967;52.070;8.596;2023-08-06T03:25:22;99419.13;;;14.76;100.00
55070;BME280;40967;52.070;8.596;2023-08-06T03:27:48;99396.16;;;14.60;100.00
55070;BME280;40967;52.070;8.596;2023-08-06T03:30:13;99416.09;;;14.69;100.00
55070;BME280;40967;52.070;8.596;2023-08-06T03:32:38;99415.44;;;14.63;100.00
55070;BME280;40967;52.070;8.596;2023-08-06T03:35:04;99415.94;;;14.57;100.00
55070;BME280;40967;52.070;8.596;2023-08-06T03:37:30;99407.91;;;14.52;100.00
55070;BME280;40967;52.070;8.596;2023-08-06T03:39:55;99412.72;;;14.46;100.00
55070;BME280;40967;52.070;8.596;2023-08-06T03:42:20;99417.69;;;14.44;100.00
55070;BME280;40967;52.070;8.596;2023-08-06T03:44:46;99415.78;;;14.36;100.00
55070;BME280;40967;52.070;8.596;2023-08-06T03:47:12;99415.13;;;14.31;100.00
55070;BME280;40967;52.070;8.596;2023-08-06T03:49:38;99405.34;;;14.30;100.00
55070;BME280;40967;52.070;8.596;2023-08-06T03:52:04;99405.34;;;14.30;100.00
55070;BME280;40967;52.070;8.596;2023-08-06T03:54:30;99393.13;;;14.27;100.00
55070;BME280;40967;52.070;8.596;2023-08-06T03:56:55;99389.91;;;14.25;100.00
55070;BME280;40967;52.070;8.596;2023-08-06T03:59:20;99393.47;;;14.26;100.00
55070;BME280;40967;52.070;8.596;2023-08-06T04:01:46;99386.50;;;14.20;100.00
55070;BME280;40967;52.070;8.596;2023-08-06T04:04:11;99397.09;;;14.21;100.00
55070;BME280;40967;52.070;8.596;2023-08-06T04:06:36;99395.84;;;14.19;100.00
55070;BME280;40967;52.070;8.596;2023-08-06T04:09:02;99389.56;;;14.18;100.00
55070;BME280;40967;52.070;8.596;2023-08-06T04:11:28;99393.75;;;14.16;100.00
55070;BME280;40967;52.070;8.596;2023-08-06T04:13:53;99396.81;;;14.14;100.00
55070;BME280;40967;52.070;8.596;2023-08-06T04:16:20;99391.66;;;14.13;100.00
55070;BME280;40967;52.070;8.596;2023-08-06T04:18:46;99395.03;;;14.10;100.00
55070;BME280;40967;52.070;8.596;2023-08-06T04:21:11;99391.81;;;14.08;100.00
55070;BME280;40967;52.070;8.596;2023-08-06T04:23:37;99396.16;;;14.09;100.00
55070;BME280;40967;52.070;8.596;2023-08-06T04:26:05;99402.72;;;14.08;100.00
55070;BME280;40967;52.070;8.596;2023-08-06T04:28:30;99396.31;;;14.04;100.00
55070;BME280;40967;52.070;8.596;2023-08-06T04:30:56;99401.28;;;14.02;100.00
55070;BME280;40967;52.070;8.596;2023-08-06T04:33:21;99402.06;;;14.02;100.00
55070;BME280;40967;52.070;8.596;2023-08-06T04:35:47;99400.16;;;14.03;100.00
55070;BME280;40967;52.070;8.596;2023-08-06T04:38:12;99406.25;;;14.00;100.00
55070;BME280;40967;52.070;8.596;2023-08-06T04:40:37;99399.81;;;14.04;100.00
55070;BME280;40967;52.070;8.596;2023-08-06T04:43:03;99403.03;;;14.06;100.00
55070;BME280;40967;52.070;8.596;2023-08-06T04:45:28;99409.78;;;14.09;100.00
55070;BME280;40967;52.070;8.596;2023-08-06T04:47:54;99399.34;;;14.02;100.00
55070;BME280;40967;52.070;8.596;2023-08-06T04:50:20;99409.78;;;14.09;100.00
55070;BME280;40967;52.070;8.596;2023-08-06T04:52:45;99412.38;;;14.14;100.00
55070;BME280;40967;52.070;8.596;2023-08-06T04:55:11;99405.28;;;14.13;100.00
55070;BME280;40967;52.070;8.596;2023-08-06T04:57:36;99415.91;;;14.23;100.00
55070;BME280;40967;52.070;8.596;2023-08-06T05:00:02;99413.06;;;14.28;100.00
55070;BME280;40967;52.070;8.596;2023-08-06T05:02:27;99411.25;;;14.32;100.00
55070;BME280;40967;52.070;8.596;2023-08-06T05:04:53;99409.84;;;14.34;100.00
55070;BME280;40967;52.070;8.596;2023-08-06T05:07:18;99408.38;;;14.37;100.00
55070;BME280;40967;52.070;8.596;2023-08-06T05:09:44;99406.63;;;14.41;100.00
55070;BME280;40967;52.070;8.596;2023-08-06T05:12:09;99406.78;;;14.44;100.00
55070;BME280;40967;52.070;8.596;2023-08-06T05:14:34;99404.22;;;14.48;100.00
55070;BME280;40967;52.070;8.596;2023-08-06T05:17:00;99408.72;;;14.52;100.00
55070;BME280;40967;52.070;8.596;2023-08-06T05:19:27;99403.09;;;14.57;100.00
55070;BME280;40967;52.070;8.596;2023-08-06T05:21:52;99398.41;;;14.58;100.00
55070;BME280;40967;52.070;8.596;2023-08-06T05:24:18;99405.34;;;14.64;100.00
55070;BME280;40967;52.070;8.596;2023-08-06T05:26:43;99390.88;;;14.63;100.00
55070;BME280;40967;52.070;8.596;2023-08-06T05:29:11;99408.53;;;14.74;100.00
55070;BME280;40967;52.070;8.596;2023-08-06T05:31:37;99406.28;;;14.76;100.00
55070;BME280;40967;52.070;8.596;2023-08-06T05:34:02;99412.34;;;14.82;100.00
55070;BME280;40967;52.070;8.596;2023-08-06T05:36:28;99415.25;;;14.86;100.00
55070;BME280;40967;52.070;8.596;2023-08-06T05:38:53;99405.59;;;14.88;100.00
55070;BME280;40967;52.070;8.596;2023-08-06T05:41:18;99414.13;;;14.95;100.00
55070;BME280;40967;52.070;8.596;2023-08-06T05:43:44;99402.03;;;14.96;100.00
55070;BME280;40967;52.070;8.596;2023-08-06T05:46:10;99410.22;;;15.05;100.00
55070;BME280;40967;52.070;8.596;2023-08-06T05:48:35;99412.81;;;15.10;100.00
55070;BME280;40967;52.070;8.596;2023-08-06T05:51:01;99409.09;;;15.14;100.00
55070;BME280;40967;52.070;8.596;2023-08-06T05:53:26;99409.38;;;15.21;100.00
55070;BME280;40967;52.070;8.596;2023-08-06T05:55:51;99407.28;;;15.27;100.00
55070;BME280;40967;52.070;8.596;2023-08-06T05:58:17;99407.91;;;15.32;100.00
55070;BME280;40967;52.070;8.596;2023-08-06T06:00:42;99403.84;;;15.38;100.00
55070;BME280;40967;52.070;8.596;2023-08-06T06:03:08;99404.84;;;15.42;100.00
55070;BME280;40967;52.070;8.596;2023-08-06T06:05:34;99406.25;;;15.48;100.00
55070;BME280;40967;52.070;8.596;2023-08-06T06:07:59;99407.69;;;15.54;100.00
55070;BME280;40967;52.070;8.596;2023-08-06T06:10:24;99398.31;;;15.55;100.00
55070;BME280;40967;52.070;8.596;2023-08-06T06:12:50;99401.53;;;15.57;100.00
55070;BME280;40967;52.070;8.596;2023-08-06T06:15:15;99396.56;;;15.59;100.00
55070;BME280;40967;52.070;8.596;2023-08-06T06:17:41;99411.19;;;15.63;100.00
55070;BME280;40967;52.070;8.596;2023-08-06T06:20:07;99406.97;;;15.66;100.00
55070;BME280;40967;52.070;8.596;2023-08-06T06:22:32;99409.38;;;15.67;100.00
55070;BME280;40967;52.070;8.596;2023-08-06T06:24:57;99415.31;;;15.69;100.00
55070;BME280;40967;52.070;8.596;2023-08-06T06:27:23;99406.78;;;15.71;100.00
55070;BME280;40967;52.070;8.596;2023-08-06T06:29:48;99402.25;;;15.75;100.00
55070;BME280;40967;52.070;8.596;2023-08-06T06:32:14;99405.28;;;15.82;100.00
55070;BME280;40967;52.070;8.596;2023-08-06T06:34:39;99402.81;;;15.89;100.00
55070;BME280;40967;52.070;8.596;2023-08-06T06:37:04;99402.28;;;15.96;100.00
55070;BME280;40967;52.070;8.596;2023-08-06T06:39:30;99406.94;;;16.04;100.00
55070;BME280;40967;52.070;8.596;2023-08-06T06:41:55;99405.38;;;16.15;100.00
55070;BME280;40967;52.070;8.596;2023-08-06T06:44:21;99401.47;;;16.24;100.00
55070;BME280;40967;52.070;8.596;2023-08-06T06:46:46;99406.19;;;16.36;100.00
55070;BME280;40967;52.070;8.596;2023-08-06T06:49:12;99401.63;;;16.48;100.00
55070;BME280;40967;52.070;8.596;2023-08-06T06:51:37;99403.38;;;16.65;100.00
55070;BME280;40967;52.070;8.596;2023-08-06T06:54:03;99407.09;;;16.81;100.00
55070;BME280;40967;52.070;8.596;2023-08-06T06:56:28;99398.50;;;17.03;100.00
55070;BME280;40967;52.070;8.596;2023-08-06T06:58:53;99393.75;;;17.24;100.00
55070;BME280;40967;52.070;8.596;2023-08-06T07:01:19;99400.09;;;17.49;100.00
55070;BME280;40967;52.070;8.596;2023-08-06T07:03:44;99394.03;;;17.79;100.00
55070;BME280;40967;52.070;8.596;2023-08-06T07:06:10;99390.13;;;18.04;100.00
55070;BME280;40967;52.070;8.596;2023-08-06T07:08:36;99388.56;;;18.31;100.00
55070;BME280;40967;52.070;8.596;2023-08-06T07:11:02;99389.91;;;18.49;100.00
55070;BME280;40967;52.070;8.596;2023-08-06T07:13:28;99391.53;;;18.78;100.00
55070;BME280;40967;52.070;8.596;2023-08-06T07:15:54;99402.75;;;19.00;100.00
55070;BME280;40967;52.070;8.596;2023-08-06T07:18:20;99401.34;;;19.22;100.00
55070;BME280;40967;52.070;8.596;2023-08-06T07:20:53;99393.03;;;19.34;100.00
55070;BME280;40967;52.070;8.596;2023-08-06T07:23:23;99389.94;;;19.51;99.46
55070;BME280;40967;52.070;8.596;2023-08-06T07:25:49;99393.13;;;19.69;99.25
55070;BME280;40967;52.070;8.596;2023-08-06T07:28:15;99392.31;;;19.84;100.00
55070;BME280;40967;52.070;8.596;2023-08-06T07:30:41;99391.91;;;20.01;97.80
55070;BME280;40967;52.070;8.596;2023-08-06T07:33:07;99372.81;;;20.08;96.18
55070;BME280;40967;52.070;8.596;2023-08-06T07:35:33;99385.09;;;20.29;95.76
55070;BME280;40967;52.070;8.596;2023-08-06T07:37:58;99388.91;;;20.60;97.03
55070;BME280;40967;52.070;8.596;2023-08-06T07:40:24;99386.47;;;20.96;96.84
55070;BME280;40967;52.070;8.596;2023-08-06T07:42:49;99390.28;;;21.30;92.70
55070;BME280;40967;52.070;8.596;2023-08-06T07:45:14;99387.47;;;21.49;88.95
55070;BME280;40967;52.070;8.596;2023-08-06T07:47:40;99393.22;;;21.63;87.29
55070;BME280;40967;52.070;8.596;2023-08-06T07:50:06;99383.59;;;21.54;86.83
55070;BME280;40967;52.070;8.596;2023-08-06T07:52:31;99388.66;;;21.29;88.09
55070;BME280;40967;52.070;8.596;2023-08-06T07:54:57;99372.44;;;21.24;89.55
55070;BME280;40967;52.070;8.596;2023-08-06T07:57:22;99380.81;;;21.54;89.04
55070;BME280;40967;52.070;8.596;2023-08-06T07:59:48;99381.69;;;21.80;86.26
55070;BME280;40967;52.070;8.596;2023-08-06T08:02:13;99374.91;;;22.04;84.65
55070;BME280;40967;52.070;8.596;2023-08-06T08:04:38;99375.50;;;22.16;81.43
55070;BME280;40967;52.070;8.596;2023-08-06T08:07:04;99357.78;;;22.21;80.96
55070;BME280;40967;52.070;8.596;2023-08-06T08:09:30;99370.69;;;22.39;80.46
55070;BME280;40967;52.070;8.596;2023-08-06T08:11:55;99376.88;;;22.59;80.04
55070;BME280;40967;52.070;8.596;2023-08-06T08:14:21;99373.31;;;22.59;79.62
55070;BME280;40967;52.070;8.596;2023-08-06T08:16:46;99368.63;;;22.63;80.32
55070;BME280;40967;52.070;8.596;2023-08-06T08:19:11;99372.34;;;22.77;78.92
55070;BME280;40967;52.070;8.596;2023-08-06T08:21:37;99383.06;;;22.82;77.06
55070;BME280;40967;52.070;8.596;2023-08-06T08:24:06;99379.88;;;22.80;76.65
55070;BME280;40967;52.070;8.596;2023-08-06T08:26:32;99376.66;;;22.75;76.16
55070;BME280;40967;52.070;8.596;2023-08-06T08:28:57;99386.53;;;22.72;75.54
55070;BME280;40967;52.070;8.596;2023-08-06T08:31:23;99383.75;;;22.72;75.43
55070;BME280;40967;52.070;8.596;2023-08-06T08:33:48;99374.28;;;22.73;75.13
55070;BME280;40967;52.070;8.596;2023-08-06T08:36:13;99373.91;;;22.75;75.11
55070;BME280;40967;52.070;8.596;2023-08-06T08:38:39;99379.41;;;22.75;75.14
55070;BME280;40967;52.070;8.596;2023-08-06T08:41:05;99381.81;;;22.76;75.67
55070;BME280;40967;52.070;8.596;2023-08-06T08:43:31;99375.13;;;22.77;74.87
55070;BME280;40967;52.070;8.596;2023-08-06T08:45:57;99371.97;;;22.79;74.21
55070;BME280;40967;52.070;8.596;2023-08-06T08:48:26;99371.75;;;22.61;74.70
55070;BME280;40967;52.070;8.596;2023-08-06T08:50:53;99375.16;;;22.51;75.41
55070;BME280;40967;52.070;8.596;2023-08-06T08:53:18;99379.50;;;22.52;75.78
55070;BME280;40967;52.070;8.596;2023-08-06T08:55:49;99378.06;;;22.58;75.40
55070;BME280;40967;52.070;8.596;2023-08-06T08:58:15;99372.53;;;22.58;74.17
55070;BME280;40967;52.070;8.596;2023-08-06T09:00:46;99379.81;;;22.43;74.50
55070;BME280;40967;52.070;8.596;2023-08-06T09:03:13;99379.66;;;22.33;74.63
55070;BME280;40967;52.070;8.596;2023-08-06T09:05:43;99382.47;;;22.36;75.99
55070;BME280;40967;52.070;8.596;2023-08-06T09:08:11;99386.47;;;22.39;75.26
55070;BME280;40967;52.070;8.596;2023-08-06T09:10:36;99366.59;;;22.30;75.10
55070;BME280;40967;52.070;8.596;2023-08-06T09:13:04;99388.81;;;22.37;75.73
55070;BME280;40967;52.070;8.596;2023-08-06T09:15:33;99384.81;;;22.34;75.98
55070;BME280;40967;52.070;8.596;2023-08-06T09:17:59;99383.22;;;22.33;75.05
55070;BME280;40967;52.070;8.596;2023-08-06T09:20:24;99381.69;;;22.36;76.05
55070;BME280;40967;52.070;8.596;2023-08-06T09:22:52;99382.53;;;22.40;75.59
55070;BME280;40967;52.070;8.596;2023-08-06T09:25:25;99379.81;;;22.43;75.55
55070;BME280;40967;52.070;8.596;2023-08-06T09:27:51;99381.03;;;22.46;75.11
55070;BME280;40967;52.070;8.596;2023-08-06T09:30:31;99382.19;;;22.45;74.92
55070;BME280;40967;52.070;8.596;2023-08-06T09:32:56;99380.56;;;22.40;75.62
55070;BME280;40967;52.070;8.596;2023-08-06T09:35:22;99374.38;;;22.50;75.57
55070;BME280;40967;52.070;8.596;2023-08-06T09:37:48;99373.28;;;22.55;75.39
55070;BME280;40967;52.070;8.596;2023-08-06T09:40:30;99370.91;;;22.57;75.19
55070;BME280;40967;52.070;8.596;2023-08-06T09:42:57;99376.06;;;22.55;75.17
55070;BME280;40967;52.070;8.596;2023-08-06T09:45:24;99368.75;;;22.73;75.26
55070;BME280;40967;52.070;8.596;2023-08-06T09:47:56;99365.59;;;22.75;74.27
55070;BME280;40967;52.070;8.596;2023-08-06T09:50:22;99357.13;;;22.61;74.23
55070;BME280;40967;52.070;8.596;2023-08-06T09:52:48;99360.66;;;22.58;75.02
55070;BME280;40967;52.070;8.596;2023-08-06T09:55:15;99363.81;;;22.56;74.44
55070;BME280;40967;52.070;8.596;2023-08-06T09:57:41;99362.44;;;22.76;75.24
55070;BME280;40967;52.070;8.596;2023-08-06T10:00:11;99362.78;;;23.08;75.12
55070;BME280;40967;52.070;8.596;2023-08-06T10:02:40;99359.09;;;23.30;73.04
55070;BME280;40967;52.070;8.596;2023-08-06T10:05:07;99354.66;;;23.69;72.43
55070;BME280;40967;52.070;8.596;2023-08-06T10:07:34;99354.22;;;24.18;71.72
55070;BME280;40967;52.070;8.596;2023-08-06T10:10:00;99355.25;;;24.71;69.88
55070;BME280;40967;52.070;8.596;2023-08-06T10:12:28;99345.06;;;25.14;67.99
55070;BME280;40967;52.070;8.596;2023-08-06T10:14:57;99353.06;;;25.54;66.62
55070;BME280;40967;52.070;8.596;2023-08-06T10:17:25;99341.88;;;25.96;64.92
55070;BME280;40967;52.070;8.596;2023-08-06T10:19:52;99349.00;;;26.25;63.33
55070;BME280;40967;52.070;8.596;2023-08-06T10:22:20;99349.69;;;26.50;61.98
55070;BME280;40967;52.070;8.596;2023-08-06T10:27:40;99347.88;;;26.99;60.85
55070;BME280;40967;52.070;8.596;2023-08-06T10:32:58;99344.22;;;27.63;57.54
55070;BME280;40967;52.070;8.596;2023-08-06T10:35:33;99342.22;;;27.67;56.65
55070;BME280;40967;52.070;8.596;2023-08-06T10:38:10;99336.34;;;27.55;55.73
55070;BME280;40967;52.070;8.596;2023-08-06T10:40:37;99330.84;;;27.48;56.17
55070;BME280;40967;52.070;8.596;2023-08-06T10:43:04;99333.63;;;27.48;55.50
55070;BME280;40967;52.070;8.596;2023-08-06T10:45:36;99330.81;;;27.51;55.14
55070;BME280;40967;52.070;8.596;2023-08-06T10:48:02;99326.16;;;27.38;55.26
55070;BME280;40967;52.070;8.596;2023-08-06T10:50:27;99329.00;;;27.31;54.86
55070;BME280;40967;52.070;8.596;2023-08-06T10:52:53;99326.16;;;27.38;55.30
55070;BME280;40967;52.070;8.596;2023-08-06T10:55:27;99325.75;;;27.36;55.54
55070;BME280;40967;52.070;8.596;2023-08-06T10:57:53;99330.38;;;27.53;55.72
55070;BME280;40967;52.070;8.596;2023-08-06T11:00:20;99323.31;;;27.85;53.94
55070;BME280;40967;52.070;8.596;2023-08-06T11:02:50;99327.56;;;28.01;52.75
55070;BME280;40967;52.070;8.596;2023-08-06T11:05:15;99330.91;;;28.22;51.52
55070;BME280;40967;52.070;8.596;2023-08-06T11:07:42;99322.41;;;28.33;50.18
55070;BME280;40967;52.070;8.596;2023-08-06T11:10:09;99317.25;;;28.31;50.31
55070;BME280;40967;52.070;8.596;2023-08-06T11:12:35;99307.16;;;28.44;50.43
55070;BME280;40967;52.070;8.596;2023-08-06T11:15:01;99316.75;;;28.73;48.93
55070;BME280;40967;52.070;8.596;2023-08-06T11:17:28;99312.44;;;28.95;48.65
55070;BME280;40967;52.070;8.596;2023-08-06T11:19:54;99306.06;;;29.22;47.70
55070;BME280;40967;52.070;8.596;2023-08-06T11:22:21;99311.31;;;29.43;47.25
55070;BME280;40967;52.070;8.596;2023-08-06T11:24:47;99306.09;;;29.68;46.45
55070;BME280;40967;52.070;8.596;2023-08-06T11:27:13;99307.19;;;29.74;45.99
55070;BME280;40967;52.070;8.596;2023-08-06T11:29:40;99299.66;;;29.71;46.15
55070;BME280;40967;52.070;8.596;2023-08-06T11:32:06;99301.09;;;29.56;46.78
55070;BME280;40967;52.070;8.596;2023-08-06T11:34:31;99301.22;;;29.49;47.21
55070;BME280;40967;52.070;8.596;2023-08-06T11:36:57;99306.97;;;29.38;46.99
55070;BME280;40967;52.070;8.596;2023-08-06T11:39:23;99306.91;;;29.42;46.87
55070;BME280;40967;52.070;8.596;2023-08-06T11:41:49;99312.56;;;29.38;46.76
55070;BME280;40967;52.070;8.596;2023-08-06T11:44:14;99311.44;;;29.36;46.82
55070;BME280;40967;52.070;8.596;2023-08-06T11:46:53;99313.66;;;29.21;47.34
55070;BME280;40967;52.070;8.596;2023-08-06T11:49:21;99306.78;;;28.72;47.57
55070;BME280;40967;52.070;8.596;2023-08-06T11:51:47;99307.47;;;28.16;48.65
55070;BME280;40967;52.070;8.596;2023-08-06T11:54:13;99301.00;;;27.85;49.77
55070;BME280;40967;52.070;8.596;2023-08-06T11:56:38;99288.50;;;27.63;50.75
55070;BME280;40967;52.070;8.596;2023-08-06T11:59:04;99296.53;;;27.54;50.67
55070;BME280;40967;52.070;8.596;2023-08-06T12:01:30;99289.09;;;27.41;51.28
55070;BME280;40967;52.070;8.596;2023-08-06T12:03:59;99280.84;;;27.27;51.07
55070;BME280;40967;52.070;8.596;2023-08-06T12:06:28;99277.34;;;27.19;50.87
55070;BME280;40967;52.070;8.596;2023-08-06T12:08:53;99273.91;;;26.98;51.65
55070;BME280;40967;52.070;8.596;2023-08-06T12:11:21;99270.81;;;26.85;52.23
55070;BME280;40967;52.070;8.596;2023-08-06T12:13:50;99274.84;;;26.77;52.89
55070;BME280;40967;52.070;8.596;2023-08-06T12:16:16;99276.88;;;26.69;53.02
55070;BME280;40967;52.070;8.596;2023-08-06T12:18:44;99280.94;;;26.51;53.41
55070;BME280;40967;52.070;8.596;2023-08-06T12:21:11;99282.16;;;26.39;54.33
55070;BME280;40967;52.070;8.596;2023-08-06T12:23:36;99282.97;;;26.36;54.36
55070;BME280;40967;52.070;8.596;2023-08-06T12:26:02;99279.06;;;26.30;54.83
55070;BME280;40967;52.070;8.596;2023-08-06T12:28:27;99271.88;;;26.33;54.70
55070;BME280;40967;52.070;8.596;2023-08-06T12:30:52;99272.69;;;26.33;54.84
55070;BME280;40967;52.070;8.596;2023-08-06T12:33:20;99281.84;;;26.30;54.72
55070;BME280;40967;52.070;8.596;2023-08-06T12:35:45;99280.31;;;26.12;55.30
55070;BME280;40967;52.070;8.596;2023-08-06T12:38:11;99267.63;;;26.00;55.75
55070;BME280;40967;52.070;8.596;2023-08-06T12:40:36;99273.59;;;25.92;55.28
55070;BME280;40967;52.070;8.596;2023-08-06T12:43:02;99276.44;;;25.67;55.68
55070;BME280;40967;52.070;8.596;2023-08-06T12:45:27;99276.44;;;25.67;55.82
55070;BME280;40967;52.070;8.596;2023-08-06T12:47:52;99276.03;;;25.75;56.03
55070;BME280;40967;52.070;8.596;2023-08-06T12:50:18;99270.44;;;25.90;55.65
55070;BME280;40967;52.070;8.596;2023-08-06T12:52:44;99273.59;;;25.99;56.26
55070;BME280;40967;52.070;8.596;2023-08-06T12:55:09;99275.16;;;26.10;55.68
55070;BME280;40967;52.070;8.596;2023-08-06T12:57:35;99267.19;;;26.12;54.89
55070;BME280;40967;52.070;8.596;2023-08-06T13:00:00;99271.19;;;26.11;55.18
55070;BME280;40967;52.070;8.596;2023-08-06T13:02:25;99271.94;;;26.19;55.34